createdAt,value
2022-12-03T00:01:55.069Z,27.88
2022-12-03T00:04:21.644Z,27.50
2022-12-03T00:06:48.255Z,27.27
2022-12-03T00:09:14.916Z,26.67
2022-12-03T00:11:42.824Z,26.83
2022-12-03T00:14:09.469Z,29.02
2022-12-03T00:16:36.288Z,36.13
2022-12-03T00:19:02.963Z,25.65
2022-12-03T00:21:29.518Z,25.27
2022-12-03T00:23:56.106Z,30.67
2022-12-03T00:26:22.803Z,29.25
2022-12-03T00:28:52.298Z,26.08
2022-12-03T00:31:18.912Z,28.73
2022-12-03T00:33:45.474Z,29.42
2022-12-03T00:36:12.116Z,25.48
2022-12-03T00:38:38.590Z,25.20
2022-12-03T00:41:05.795Z,26.60
2022-12-03T00:43:32.510Z,25.85
2022-12-03T00:46:00.561Z,28.23
2022-12-03T00:48:27.117Z,27.35
2022-12-03T00:50:53.768Z,26.15
2022-12-03T00:53:20.286Z,28.05
2022-12-03T00:55:46.930Z,24.63
2022-12-03T00:58:13.475Z,26.73
2022-12-03T01:00:40.154Z,26.80
2022-12-03T01:03:08.072Z,28.95
2022-12-03T01:05:34.731Z,26.13
2022-12-03T01:08:01.274Z,28.92
2022-12-03T01:10:27.856Z,27.55
2022-12-03T01:12:54.420Z,29.52
2022-12-03T01:15:21.035Z,25.23
2022-12-03T01:17:47.630Z,25.73
2022-12-03T01:20:15.565Z,28.63
2022-12-03T01:22:42.126Z,27.38
2022-12-03T01:25:09.680Z,26.17
2022-12-03T01:27:36.192Z,25.75
2022-12-03T01:30:03.323Z,29.52
2022-12-03T01:32:29.892Z,23.70
2022-12-03T01:34:56.828Z,25.95
2022-12-03T01:37:25.979Z,23.73
2022-12-03T01:39:52.882Z,23.27
2022-12-03T01:42:22.372Z,23.25
2022-12-03T01:44:51.234Z,24.70
2022-12-03T01:47:21.511Z,22.27
2022-12-03T01:49:51.678Z,20.25
2022-12-03T01:52:21.316Z,24.45
2022-12-03T01:54:53.907Z,23.55
2022-12-03T01:57:23.804Z,23.58
2022-12-03T01:59:51.914Z,23.60
2022-12-03T02:02:21.730Z,22.25
2022-12-03T02:04:48.768Z,23.63
2022-12-03T02:07:20.500Z,22.40
2022-12-03T02:09:48.826Z,25.42
2022-12-03T02:12:20.729Z,24.05
2022-12-03T02:14:47.430Z,22.20
2022-12-03T02:17:14.047Z,24.10
2022-12-03T02:19:40.769Z,19.83
2022-12-03T02:22:18.044Z,24.48
2022-12-03T02:24:53.534Z,25.30
2022-12-03T02:27:21.948Z,24.17
2022-12-03T02:29:48.604Z,24.92
2022-12-03T02:32:15.301Z,23.67
2022-12-03T02:34:43.725Z,24.67
2022-12-03T02:37:15.411Z,22.63
2022-12-03T02:39:46.588Z,23.63
2022-12-03T02:42:13.482Z,23.23
2022-12-03T02:44:41.427Z,22.58
2022-12-03T02:47:08.136Z,24.85
2022-12-03T02:49:34.800Z,25.08
2022-12-03T02:52:01.516Z,23.42
2022-12-03T02:54:28.257Z,24.00
2022-12-03T02:56:54.892Z,23.98
2022-12-03T02:59:21.601Z,24.50
2022-12-03T03:01:49.693Z,24.92
2022-12-03T03:04:16.651Z,23.85
2022-12-03T03:06:43.254Z,24.40
2022-12-03T03:09:10.059Z,24.25
2022-12-03T03:11:36.791Z,27.70
2022-12-03T03:14:03.550Z,26.95
2022-12-03T03:16:30.284Z,27.55
2022-12-03T03:18:58.236Z,24.17
2022-12-03T03:21:24.784Z,25.85
2022-12-03T03:23:51.400Z,26.20
2022-12-03T03:26:17.998Z,24.83
2022-12-03T03:28:47.781Z,28.90
2022-12-03T03:31:17.714Z,26.25
2022-12-03T03:33:47.024Z,27.20
2022-12-03T03:36:16.786Z,28.05
2022-12-03T03:38:43.790Z,25.98
2022-12-03T03:41:12.029Z,28.50
2022-12-03T03:43:40.651Z,27.05
2022-12-03T03:46:07.684Z,28.75
2022-12-03T03:48:35.211Z,28.50
2022-12-03T03:51:02.544Z,29.25
2022-12-03T03:53:30.849Z,29.20
2022-12-03T03:55:57.439Z,27.13
2022-12-03T03:58:24.064Z,28.17
2022-12-03T04:00:51.768Z,28.02
2022-12-03T04:03:18.421Z,27.00
2022-12-03T04:05:45.082Z,29.55
2022-12-03T04:08:11.840Z,28.50
2022-12-03T04:10:39.746Z,31.15
2022-12-03T04:13:06.520Z,32.00
2022-12-03T04:15:33.162Z,28.33
2022-12-03T04:17:59.811Z,32.00
2022-12-03T04:20:26.395Z,28.95
2022-12-03T04:22:52.980Z,33.28
2022-12-03T04:25:19.537Z,30.52
2022-12-03T04:27:47.452Z,31.80
2022-12-03T04:30:14.571Z,33.08
2022-12-03T04:32:41.103Z,31.15
2022-12-03T04:35:09.266Z,33.28
2022-12-03T04:37:35.951Z,28.08
2022-12-03T04:40:02.663Z,32.38
2022-12-03T04:42:29.235Z,29.42
2022-12-03T04:44:57.665Z,29.23
2022-12-03T04:47:24.279Z,31.48
2022-12-03T04:49:51.670Z,30.73
2022-12-03T04:52:19.769Z,31.48
2022-12-03T04:54:46.564Z,31.33
2022-12-03T04:57:13.130Z,33.35
2022-12-03T04:59:39.851Z,31.90
2022-12-03T05:02:07.867Z,31.98
2022-12-03T05:04:34.671Z,33.40
2022-12-03T05:07:01.436Z,31.27
2022-12-03T05:09:28.020Z,34.28
2022-12-03T05:11:54.627Z,33.13
2022-12-03T05:14:21.216Z,32.55
2022-12-03T05:16:47.865Z,32.60
2022-12-03T05:19:15.789Z,30.88
2022-12-03T05:21:42.376Z,31.35
2022-12-03T05:24:08.972Z,32.35
2022-12-03T05:26:35.513Z,32.72
2022-12-03T05:29:02.222Z,32.58
2022-12-03T05:31:28.914Z,35.22
2022-12-03T05:33:55.573Z,32.45
2022-12-03T05:36:23.502Z,31.05
2022-12-03T05:38:50.073Z,30.63
2022-12-03T05:41:16.547Z,36.38
2022-12-03T05:43:43.188Z,35.28
2022-12-03T05:46:09.766Z,32.95
2022-12-03T05:48:36.397Z,31.60
2022-12-03T05:51:02.952Z,33.78
2022-12-03T05:53:30.801Z,34.47
2022-12-03T05:55:57.374Z,34.40
2022-12-03T05:58:23.964Z,34.25
2022-12-03T06:00:50.604Z,33.03
2022-12-03T06:03:17.284Z,31.27
2022-12-03T06:05:43.926Z,35.72
2022-12-03T06:08:10.545Z,34.45
2022-12-03T06:10:38.534Z,35.03
2022-12-03T06:13:05.114Z,36.17
2022-12-03T06:15:31.850Z,30.73
2022-12-03T06:17:58.433Z,35.67
2022-12-03T06:20:25.168Z,33.75
2022-12-03T06:22:51.704Z,30.73
2022-12-03T06:25:18.313Z,33.70
2022-12-03T06:27:46.336Z,34.70
2022-12-03T06:30:14.089Z,32.45
2022-12-03T06:32:40.694Z,32.33
2022-12-03T06:35:08.003Z,33.17
2022-12-03T06:37:34.702Z,34.10
2022-12-03T06:40:01.256Z,27.85
2022-12-03T06:42:27.849Z,36.78
2022-12-03T06:44:56.083Z,35.65
2022-12-03T06:47:22.792Z,34.60
2022-12-03T06:49:49.316Z,35.45
2022-12-03T06:52:15.989Z,32.72
2022-12-03T06:54:42.507Z,30.95
2022-12-03T06:57:09.164Z,35.97
2022-12-03T06:59:35.703Z,34.30
2022-12-03T07:02:03.916Z,35.40
2022-12-03T07:04:30.535Z,31.08
2022-12-03T07:06:57.418Z,35.03
2022-12-03T07:09:24.068Z,33.72
2022-12-03T07:11:50.864Z,36.42
2022-12-03T07:14:17.454Z,32.17
2022-12-03T07:16:44.064Z,33.40
2022-12-03T07:19:12.027Z,33.88
2022-12-03T07:21:38.665Z,36.13
2022-12-03T07:24:05.838Z,34.75
2022-12-03T07:26:32.967Z,36.28
2022-12-03T07:28:59.479Z,36.25
2022-12-03T07:31:26.249Z,34.88
2022-12-03T07:33:52.868Z,33.45
2022-12-03T07:36:20.814Z,37.42
2022-12-03T07:38:47.381Z,33.38
2022-12-03T07:41:15.490Z,37.75
2022-12-03T07:43:42.066Z,35.50
2022-12-03T07:46:08.734Z,32.63
2022-12-03T07:48:35.337Z,33.13
2022-12-03T07:51:01.949Z,36.08
2022-12-03T07:53:29.874Z,37.22
2022-12-03T07:55:56.554Z,36.63
2022-12-03T07:58:23.146Z,36.80
2022-12-03T08:00:49.763Z,35.42
2022-12-03T08:03:16.450Z,34.85
2022-12-03T08:05:43.116Z,32.05
2022-12-03T08:08:09.673Z,34.78
2022-12-03T08:10:37.940Z,34.35
2022-12-03T08:13:11.520Z,37.78
2022-12-03T08:15:39.692Z,34.63
2022-12-03T08:18:13.356Z,39.60
2022-12-03T08:20:41.818Z,34.58
2022-12-03T08:23:13.618Z,33.13
2022-12-03T08:25:42.492Z,36.40
2022-12-03T08:28:14.438Z,33.45
2022-12-03T08:30:42.581Z,34.10
2022-12-03T08:33:17.469Z,34.08
2022-12-03T08:35:48.859Z,33.33
2022-12-03T08:38:15.669Z,32.90
2022-12-03T08:40:46.406Z,33.17
2022-12-03T08:43:18.695Z,33.45
2022-12-03T08:45:45.812Z,34.33
2022-12-03T08:48:26.176Z,35.58
2022-12-03T08:50:54.248Z,34.70
2022-12-03T08:53:28.418Z,36.60
2022-12-03T08:55:58.431Z,31.25
2022-12-03T08:58:32.591Z,35.47
2022-12-03T09:01:16.094Z,33.90
2022-12-03T09:03:48.708Z,32.38
2022-12-03T09:06:15.447Z,33.25
2022-12-03T09:08:42.082Z,33.40
2022-12-03T09:11:10.049Z,33.28
2022-12-03T09:13:36.633Z,33.42
2022-12-03T09:16:03.234Z,32.53
2022-12-03T09:18:29.815Z,33.38
2022-12-03T09:20:56.422Z,31.80
2022-12-03T09:23:23.039Z,30.48
2022-12-03T09:25:49.623Z,35.60
2022-12-03T09:28:17.464Z,32.72
2022-12-03T09:30:46.252Z,32.00
2022-12-03T09:33:12.938Z,32.53
2022-12-03T09:35:39.516Z,33.88
2022-12-03T09:38:40.851Z,37.47
2022-12-03T09:41:11.146Z,33.90
2022-12-03T09:46:25.934Z,36.13
2022-12-03T09:48:52.540Z,32.20
2022-12-03T09:51:19.442Z,30.13
2022-12-03T09:53:47.158Z,33.13
2022-12-03T09:56:20.335Z,33.70
2022-12-03T09:58:49.627Z,34.35
2022-12-03T10:01:17.350Z,34.15
2022-12-03T10:03:47.003Z,32.05
2022-12-03T10:06:17.177Z,33.55
2022-12-03T10:08:46.444Z,35.90
2022-12-03T10:11:13.008Z,35.72
2022-12-03T10:13:40.340Z,35.80
2022-12-03T10:16:11.928Z,31.80
2022-12-03T10:18:41.893Z,35.45
2022-12-03T10:21:15.917Z,33.65
2022-12-03T10:23:42.500Z,31.45
2022-12-03T10:26:09.152Z,34.65
2022-12-03T10:28:37.861Z,36.20
2022-12-03T10:31:06.485Z,39.45
2022-12-03T10:33:37.869Z,35.60
2022-12-03T10:36:22.286Z,33.70
2022-12-03T10:39:10.847Z,37.15
2022-12-03T10:41:37.788Z,35.92
2022-12-03T10:44:23.087Z,36.90
2022-12-03T10:47:06.294Z,47.28
2022-12-03T10:49:35.069Z,34.17
2022-12-03T10:52:02.195Z,36.85
2022-12-03T10:54:31.148Z,34.88
2022-12-03T10:56:58.064Z,36.72
2022-12-03T10:59:28.235Z,37.03
2022-12-03T11:01:54.941Z,35.58
2022-12-03T11:04:23.753Z,35.15
2022-12-03T11:06:51.971Z,40.03
2022-12-03T11:09:21.847Z,35.30
2022-12-03T11:11:49.612Z,34.85
2022-12-03T11:14:49.520Z,28.13
2022-12-03T11:17:40.586Z,31.13
2022-12-03T11:20:10.337Z,34.17
2022-12-03T11:22:43.654Z,37.55
2022-12-03T11:25:56.003Z,35.63
2022-12-03T11:28:51.420Z,33.15
2022-12-03T11:31:38.449Z,33.83
2022-12-03T11:34:46.519Z,33.55
2022-12-03T11:37:24.429Z,33.05
2022-12-03T11:40:26.396Z,32.10
2022-12-03T11:42:54.514Z,34.15
2022-12-03T11:45:29.635Z,34.35
2022-12-03T11:48:10.250Z,32.78
2022-12-03T11:50:40.370Z,31.77
2022-12-03T11:53:17.002Z,31.08
2022-12-03T11:55:47.067Z,35.95
2022-12-03T11:58:18.515Z,34.00
2022-12-03T12:00:49.705Z,35.70
2022-12-03T12:03:23.568Z,35.20
2022-12-03T12:06:04.607Z,33.60
2022-12-03T12:08:32.115Z,33.00
2022-12-03T12:10:59.233Z,32.92
2022-12-03T12:13:48.574Z,32.00
2022-12-03T12:16:36.586Z,31.75
2022-12-03T12:19:27.990Z,34.10
2022-12-03T12:21:55.387Z,34.20
2022-12-03T12:24:32.790Z,34.13
2022-12-03T12:27:01.383Z,33.75
2022-12-03T12:29:29.310Z,33.40
2022-12-03T12:32:11.662Z,33.13
2022-12-03T12:34:38.592Z,38.80
2022-12-03T12:37:09.718Z,35.08
2022-12-03T12:39:36.520Z,34.80
2022-12-03T12:42:08.166Z,33.45
2022-12-03T12:44:36.047Z,38.70
2022-12-03T12:47:12.290Z,36.47
2022-12-03T12:49:38.997Z,38.25
2022-12-03T12:52:05.576Z,35.22
2022-12-03T12:54:32.245Z,36.65
2022-12-03T12:56:58.808Z,38.13
2022-12-03T12:59:25.915Z,36.88
2022-12-03T13:01:54.080Z,38.05
2022-12-03T13:04:22.544Z,39.92
2022-12-03T13:06:52.782Z,39.92
2022-12-03T13:09:21.727Z,40.90
2022-12-03T13:11:53.637Z,41.05
2022-12-03T13:14:22.219Z,41.00
2022-12-03T13:16:50.323Z,39.72
2022-12-03T13:19:22.846Z,37.90
2022-12-03T13:21:50.735Z,40.05
2022-12-03T13:24:30.682Z,40.40
2022-12-03T13:26:58.157Z,40.55
2022-12-03T13:29:27.025Z,40.00
2022-12-03T13:31:55.595Z,43.30
2022-12-03T13:34:25.148Z,41.80
2022-12-03T13:36:57.594Z,42.20
2022-12-03T13:39:30.552Z,45.00
2022-12-03T13:41:59.154Z,49.15
2022-12-03T13:44:27.203Z,42.85
2022-12-03T13:46:53.771Z,43.35
2022-12-03T13:49:23.914Z,42.67
2022-12-03T13:51:50.504Z,44.40
2022-12-03T13:54:21.166Z,44.85
2022-12-03T13:56:48.694Z,45.22
2022-12-03T13:59:15.283Z,43.50
2022-12-03T14:01:41.997Z,42.60
2022-12-03T14:04:25.164Z,46.13
2022-12-03T14:06:51.833Z,48.72
2022-12-03T14:09:18.345Z,47.97
2022-12-03T14:11:45.010Z,43.67
2022-12-03T14:14:11.673Z,44.70
2022-12-03T14:16:38.333Z,45.13
2022-12-03T14:19:04.923Z,42.78
2022-12-03T14:21:32.867Z,44.83
2022-12-03T14:23:59.451Z,46.33
2022-12-03T14:26:26.020Z,45.70
2022-12-03T14:28:52.587Z,48.72
2022-12-03T14:31:19.294Z,44.80
2022-12-03T14:33:45.850Z,42.28
2022-12-03T14:36:12.482Z,44.75
2022-12-03T14:38:40.355Z,44.20
2022-12-03T14:41:06.937Z,42.35
2022-12-03T14:43:33.493Z,46.42
2022-12-03T14:46:00.176Z,41.47
2022-12-03T14:48:26.747Z,43.92
2022-12-03T14:50:53.417Z,41.85
2022-12-03T14:53:25.616Z,46.15
2022-12-03T14:55:55.218Z,39.30
2022-12-03T14:58:21.780Z,46.08
2022-12-03T15:00:48.427Z,42.30
2022-12-03T15:03:15.105Z,42.45
2022-12-03T15:05:41.682Z,43.65
2022-12-03T15:08:08.278Z,41.08
2022-12-03T15:10:35.741Z,44.17
2022-12-03T15:13:03.672Z,43.25
2022-12-03T15:15:30.236Z,42.60
2022-12-03T15:17:56.783Z,45.08
2022-12-03T15:20:23.399Z,43.58
2022-12-03T15:22:49.955Z,41.35
2022-12-03T15:25:16.660Z,43.42
2022-12-03T15:27:43.136Z,45.63
2022-12-03T15:30:11.320Z,42.58
2022-12-03T15:32:39.636Z,44.80
2022-12-03T15:35:07.203Z,42.75
2022-12-03T15:37:33.848Z,46.55
2022-12-03T15:40:00.522Z,43.17
2022-12-03T15:42:27.082Z,40.78
2022-12-03T15:44:53.771Z,50.63
2022-12-03T15:47:21.681Z,44.92
2022-12-03T15:49:48.239Z,42.97
2022-12-03T15:52:14.795Z,45.72
2022-12-03T15:54:41.368Z,47.58
2022-12-03T15:57:07.949Z,47.42
2022-12-03T15:59:34.512Z,40.33
2022-12-03T16:02:01.283Z,43.65
2022-12-03T16:04:29.226Z,44.10
2022-12-03T16:06:55.858Z,41.97
2022-12-03T16:09:26.976Z,47.92
2022-12-03T16:11:54.107Z,44.35
2022-12-03T16:14:20.690Z,39.67
2022-12-03T16:16:47.562Z,46.28
2022-12-03T16:19:14.107Z,45.42
2022-12-03T16:21:42.065Z,46.58
2022-12-03T16:24:08.689Z,45.42
2022-12-03T16:26:35.260Z,45.35
2022-12-03T16:29:01.921Z,44.08
2022-12-03T16:31:28.634Z,42.25
2022-12-03T16:33:55.422Z,45.97
2022-12-03T16:36:22.150Z,47.90
2022-12-03T16:38:51.924Z,46.10
2022-12-03T16:41:18.577Z,45.45
2022-12-03T16:43:45.461Z,42.65
2022-12-03T16:46:12.127Z,47.83
2022-12-03T16:48:38.729Z,46.67
2022-12-03T16:51:05.707Z,46.83
2022-12-03T16:53:34.035Z,43.75
2022-12-03T16:56:02.443Z,43.22
2022-12-03T16:58:29.370Z,43.63
2022-12-03T17:00:55.958Z,47.85
2022-12-03T17:03:23.097Z,47.65
2022-12-03T17:05:50.002Z,47.35
2022-12-03T17:08:16.705Z,43.97
2022-12-03T17:10:43.988Z,45.85
2022-12-03T17:13:12.099Z,42.85
2022-12-03T17:15:38.967Z,44.42
2022-12-03T17:18:06.382Z,45.40
2022-12-03T17:20:33.587Z,48.75
2022-12-03T17:23:00.320Z,44.63
2022-12-03T17:25:27.951Z,43.75
2022-12-03T17:27:54.793Z,45.92
2022-12-03T17:30:22.810Z,48.78
2022-12-03T17:32:49.508Z,51.00
2022-12-03T17:35:16.607Z,41.28
2022-12-03T17:37:43.178Z,43.95
2022-12-03T17:40:11.500Z,47.35
2022-12-03T17:42:38.129Z,44.45
2022-12-03T17:45:05.836Z,45.60
2022-12-03T17:47:33.788Z,47.03
2022-12-03T17:50:00.367Z,45.60
2022-12-03T17:52:27.014Z,46.47
2022-12-03T17:55:12.884Z,49.25
2022-12-03T17:57:40.664Z,48.22
2022-12-03T18:00:08.637Z,47.75
2022-12-03T18:02:43.029Z,44.85
2022-12-03T18:05:10.443Z,44.55
2022-12-03T18:07:37.061Z,43.88
2022-12-03T18:10:04.414Z,43.67
2022-12-03T18:12:31.122Z,44.75
2022-12-03T18:14:58.839Z,44.35
2022-12-03T18:17:25.419Z,46.38
2022-12-03T18:19:53.711Z,44.03
2022-12-03T18:22:20.527Z,43.28
2022-12-03T18:24:51.521Z,47.70
2022-12-03T18:27:20.248Z,41.20
2022-12-03T18:29:46.774Z,45.97
2022-12-03T18:32:27.661Z,44.83
2022-12-03T18:34:56.789Z,43.20
2022-12-03T18:37:26.272Z,45.30
2022-12-03T18:39:53.500Z,46.42
2022-12-03T18:42:22.982Z,47.55
2022-12-03T18:44:51.306Z,46.42
2022-12-03T18:47:20.724Z,49.20
2022-12-03T18:49:47.862Z,43.03
2022-12-03T18:52:17.336Z,44.92
2022-12-03T18:54:44.133Z,41.83
2022-12-03T18:57:10.860Z,43.30
2022-12-03T18:59:37.983Z,42.85
2022-12-03T19:02:05.049Z,44.58
2022-12-03T19:04:33.044Z,41.15
2022-12-03T19:06:59.552Z,43.85
2022-12-03T19:09:27.441Z,39.08
2022-12-03T19:11:53.969Z,44.28
2022-12-03T19:14:20.630Z,41.08
2022-12-03T19:16:47.303Z,42.47
2022-12-03T19:19:13.971Z,41.70
2022-12-03T19:21:40.745Z,39.95
2022-12-03T19:24:25.135Z,41.20
2022-12-03T19:26:53.523Z,47.13
2022-12-03T19:29:20.379Z,42.00
2022-12-03T19:31:49.178Z,41.65
2022-12-03T19:34:15.785Z,45.78
2022-12-03T19:36:42.416Z,42.38
2022-12-03T19:39:09.047Z,40.53
2022-12-03T19:41:35.832Z,38.08
2022-12-03T19:44:07.883Z,40.03
2022-12-03T19:46:37.537Z,42.72
2022-12-03T19:49:04.286Z,42.90
2022-12-03T19:51:35.768Z,39.67
2022-12-03T19:54:03.225Z,41.20
2022-12-03T19:56:29.872Z,39.50
2022-12-03T19:58:57.286Z,41.35
2022-12-03T20:01:26.996Z,38.28
2022-12-03T20:03:55.784Z,43.50
2022-12-03T20:06:24.787Z,38.25
2022-12-03T20:08:55.522Z,43.90
2022-12-03T20:11:24.216Z,37.83
2022-12-03T20:13:53.203Z,40.35
2022-12-03T20:16:20.376Z,40.47
2022-12-03T20:18:49.229Z,38.47
2022-12-03T20:21:18.076Z,36.80
2022-12-03T20:23:45.665Z,41.50
2022-12-03T20:26:15.361Z,35.72
2022-12-03T20:28:42.519Z,39.72
2022-12-03T20:31:10.827Z,38.00
2022-12-03T20:33:37.891Z,41.65
2022-12-03T20:36:06.912Z,38.70
2022-12-03T20:38:34.058Z,39.38
2022-12-03T20:41:01.279Z,37.75
2022-12-03T20:43:28.274Z,40.75
2022-12-03T20:46:01.003Z,37.85
2022-12-03T20:48:29.669Z,35.33
2022-12-03T20:50:56.329Z,37.78
2022-12-03T20:53:25.529Z,39.35
2022-12-03T20:55:55.269Z,37.75
2022-12-03T20:58:21.835Z,39.00
2022-12-03T21:00:48.666Z,39.60
2022-12-03T21:03:15.301Z,41.67
2022-12-03T21:05:41.935Z,41.05
2022-12-03T21:08:08.564Z,42.15
2022-12-03T21:10:38.399Z,36.83
2022-12-03T21:13:04.937Z,44.55
2022-12-03T21:15:31.476Z,41.28
2022-12-03T21:17:58.185Z,38.42
2022-12-03T21:20:24.808Z,44.42
2022-12-03T21:22:51.487Z,37.67
2022-12-03T21:25:18.081Z,46.30
2022-12-03T21:27:48.766Z,38.83
2022-12-03T21:30:15.708Z,42.10
2022-12-03T21:32:42.343Z,41.15
2022-12-03T21:35:09.311Z,45.28
2022-12-03T21:37:35.924Z,42.13
2022-12-03T21:40:02.752Z,42.22
2022-12-03T21:42:35.505Z,45.95
2022-12-03T21:45:05.530Z,42.10
2022-12-03T21:47:37.019Z,45.22
2022-12-03T21:50:05.024Z,40.77
2022-12-03T21:52:33.061Z,42.45
2022-12-03T21:54:59.691Z,45.67
2022-12-03T21:57:26.384Z,42.30
2022-12-03T21:59:53.644Z,46.33
2022-12-03T22:02:22.055Z,43.42
2022-12-03T22:04:49.655Z,41.38
2022-12-03T22:07:16.311Z,50.08
2022-12-03T22:09:43.196Z,47.33
2022-12-03T22:12:09.798Z,44.33
2022-12-03T22:14:36.422Z,47.30
2022-12-03T22:17:02.955Z,48.65
2022-12-03T22:19:31.077Z,44.38
2022-12-03T22:21:57.681Z,44.55
2022-12-03T22:24:24.354Z,47.25
2022-12-03T22:26:50.954Z,45.72
2022-12-03T22:29:17.643Z,47.35
2022-12-03T22:31:44.313Z,45.97
2022-12-03T22:34:11.047Z,44.90
2022-12-03T22:36:38.917Z,48.38
2022-12-03T22:39:05.509Z,47.13
2022-12-03T22:41:32.117Z,45.72
2022-12-03T22:43:58.735Z,43.75
2022-12-03T22:46:25.609Z,43.22
2022-12-03T22:48:52.263Z,45.55
2022-12-03T22:51:21.701Z,48.08
2022-12-03T22:53:54.246Z,44.83
2022-12-03T22:56:20.940Z,43.78
2022-12-03T22:58:47.932Z,45.88
2022-12-03T23:01:21.369Z,47.78
2022-12-03T23:03:48.079Z,46.08
2022-12-03T23:06:14.780Z,43.88
2022-12-03T23:08:41.535Z,44.22
2022-12-03T23:11:09.460Z,43.47
2022-12-03T23:13:36.544Z,46.25
2022-12-03T23:16:03.893Z,45.63
2022-12-03T23:18:30.495Z,45.33
2022-12-03T23:20:57.357Z,42.38
2022-12-03T23:23:25.463Z,48.50
2022-12-03T23:25:58.854Z,49.15
2022-12-03T23:28:28.259Z,49.28
2022-12-03T23:30:54.904Z,44.17
2022-12-03T23:33:22.072Z,49.17
2022-12-03T23:35:48.962Z,48.67
2022-12-03T23:38:15.740Z,42.45
2022-12-03T23:40:47.751Z,46.10
2022-12-03T23:43:14.780Z,44.70
2022-12-03T23:45:42.814Z,45.40
2022-12-03T23:48:09.485Z,46.08
2022-12-03T23:50:38.629Z,44.38
2022-12-03T23:53:05.205Z,47.25
2022-12-03T23:55:31.783Z,50.28
2022-12-03T23:57:58.399Z,50.67
